sim
Sign-in with your pilot id or email,
or register
Callsign
Passwort

Schedule Details

Flight Number: RYR6953
Departure: Glasgow Prestwick Airport (EGPK) at 06:10
Arrival: Fuerteventura Airport (GCFV) at 10:35
Route: Ryanair Passenger Schedule. Enter filed route here before submitting Pirep.

Weather Information
Getting current METAR information for EGPK 211520Z 16009KT 9999 SCT015 12/10 Q1022
Getting current METAR information for GCFV 211530Z 07005KT 020V110 CAVOK 20/14 Q1020

Schedule Frequency

Route Map